»·PEaware :: N2102W KSMO-KBUR

N2102W :: KSMO-KBUR

FLIGHT INFORMATION

Flight Status: Arrived
Operator: Privately registered:
United States
More flights under this callsign
Pilot: Eric G. (5941)
Aircraft: CESSNA 172 SKYHAWK
(C172)
More flights by this aircraft type
Origin: KSMO Santa Monica Mun
United States
Destination: KBUR Bob Hope-Burbank
United States
More flights between these airports :: More routes between these airports
Route: +SMO SMO311 SILEX
File this flight plan on PilotEdge
Remarks: NA
Altitude:
(Current/Filed)
4,000ft
Speed:
(Current/Filed)
125kts
Departed: 11-Sep-20 02:06 PM
Arrived: 11-Sep-20 02:26 PM
Distance/Time
Traveled:
6796nm/0:20
Distance/Time
To Go:
Arrived

Flight Plot

Page will automatically refresh every two minutes.


Map Options




Map Legend


Flown Route
Filed Route
Departure Airport
Arrival Airport
Navaid (VOR, NDB)
Fix

Horizontal Profiles

Position Reports

Time Latitude Longitude Heading Altitude Ground
Speed
11-Sep-20 13:48 34.018369 -118.446778 153 167ft 0kts
11-Sep-20 13:49 34.018369 -118.446778 153 167ft 0kts
11-Sep-20 13:50 34.018369 -118.446778 153 167ft 0kts
11-Sep-20 13:51 34.018369 -118.446778 153 167ft 0kts
11-Sep-20 13:52 34.018369 -118.446778 153 167ft 0kts
11-Sep-20 13:53 34.018369 -118.446778 153 167ft 0kts
11-Sep-20 13:54 34.018369 -118.446778 153 167ft 0kts
11-Sep-20 13:55 34.018369 -118.446778 153 167ft 0kts
11-Sep-20 13:56 34.018369 -118.446778 153 167ft 0kts
11-Sep-20 13:57 34.018294 -118.446823 252 167ft 5kts
11-Sep-20 13:58 34.018346 -118.446950 315 167ft 0kts
11-Sep-20 13:59 34.018346 -118.446950 315 167ft 0kts
11-Sep-20 14:00 34.019640 -118.445695 43 174ft 17kts
11-Sep-20 14:01 34.019937 -118.445556 355 175ft 0kts
11-Sep-20 14:02 34.019937 -118.445556 355 175ft 0kts
11-Sep-20 14:03 34.019937 -118.445556 355 175ft 0kts
11-Sep-20 14:04 34.020593 -118.445607 348 178ft 7kts
11-Sep-20 14:05 34.012629 -118.455064 223 351ft 79kts
11-Sep-20 14:06 33.996662 -118.473409 228 1130ft 80kts
11-Sep-20 14:07 33.989762 -118.497546 257 1877ft 73kts
11-Sep-20 14:08 33.986799 -118.525273 260 2424ft 91kts
11-Sep-20 14:09 33.983236 -118.553619 262 2967ft 97kts
11-Sep-20 14:10 33.980353 -118.585960 262 3567ft 97kts
11-Sep-20 14:11 33.995039 -118.605488 353 3929ft 116kts
11-Sep-20 14:12 34.029107 -118.609866 353 3938ft 126kts
11-Sep-20 14:13 34.060533 -118.613912 352 3935ft 128kts
11-Sep-20 14:14 34.091521 -118.617915 353 3933ft 126kts
11-Sep-20 14:15 34.126768 -118.622483 352 3943ft 128kts
11-Sep-20 14:16 34.161721 -118.627013 352 3966ft 128kts
11-Sep-20 14:17 34.193834 -118.623831 54 3604ft 121kts
11-Sep-20 14:18 34.200616 -118.592050 92 3570ft 111kts
11-Sep-20 14:19 34.200112 -118.555200 92 3571ft 110kts
11-Sep-20 14:20 34.199811 -118.515618 91 3111ft 129kts
11-Sep-20 14:21 34.199275 -118.473712 91 2447ft 132kts
11-Sep-20 14:22 34.198698 -118.429328 91 1741ft 135kts
11-Sep-20 14:23 34.198307 -118.396178 91 1452ft 112kts
11-Sep-20 14:24 34.197862 -118.366308 91 728ft 64kts
11-Sep-20 14:25 34.197106 -118.360309 190 716ft 4kts
11-Sep-20 14:26 34.196405 -118.361495 18 717ft 0kts
11-Sep-20 14:27 34.196405 -118.361495 18 717ft 0kts
11-Sep-20 14:28 34.196405 -118.361495 18 717ft 0kts
11-Sep-20 14:29 0.000408 0.013975 0 3ft 0kts
11-Sep-20 14:30 0.000408 0.013975 0 3ft 0kts
11-Sep-20 14:31 0.000408 0.013975 0 3ft 0kts
11-Sep-20 14:32 0.000408 0.013975 0 3ft 0kts
11-Sep-20 14:33 0.000408 0.013975 0 3ft 0kts
11-Sep-20 14:34 0.000408 0.013975 0 3ft 0kts
11-Sep-20 14:35 0.000408 0.013975 0 3ft 0kts
11-Sep-20 14:36 0.000408 0.013975 0 3ft 0kts
11-Sep-20 14:37 0.000408 0.013975 0 3ft 0kts
11-Sep-20 14:38 0.000408 0.013975 0 3ft 0kts
11-Sep-20 14:39 0.000408 0.013975 0 3ft 0kts
11-Sep-20 14:40 0.000408 0.013975 0 3ft 0kts

Navigation Log

Ident Type
Flight plan parsing failed, navigation log unavailable